sensor_id;sensor_type;location;lat;lon;timestamp;pressure;altitude;pressure_sealevel;temperature;humidity
43125;BME280;49182;50.788;7.318;2024-02-16T00:00:24;100441.34;;;11.33;89.76
43125;BME280;49182;50.788;7.318;2024-02-16T00:05:26;100462.00;;;11.66;87.82
43125;BME280;49182;50.788;7.318;2024-02-16T00:10:29;100459.19;;;11.78;87.64
43125;BME280;49182;50.788;7.318;2024-02-16T00:15:31;100455.16;;;11.73;87.86
43125;BME280;49182;50.788;7.318;2024-02-16T00:20:32;100465.03;;;11.71;88.52
43125;BME280;49182;50.788;7.318;2024-02-16T00:25:35;100448.88;;;11.74;87.78
43125;BME280;49182;50.788;7.318;2024-02-16T00:30:37;100465.84;;;11.82;86.96
43125;BME280;49182;50.788;7.318;2024-02-16T00:35:39;100460.16;;;11.77;88.35
43125;BME280;49182;50.788;7.318;2024-02-16T00:40:42;100449.56;;;11.77;87.57
43125;BME280;49182;50.788;7.318;2024-02-16T00:45:44;100383.59;;;11.38;86.53
43125;BME280;49182;50.788;7.318;2024-02-16T00:50:46;100455.69;;;11.67;88.33
43125;BME280;49182;50.788;7.318;2024-02-16T00:55:49;100450.00;;;11.62;89.25
43125;BME280;49182;50.788;7.318;2024-02-16T01:00:50;100452.13;;;11.49;90.25
43125;BME280;49182;50.788;7.318;2024-02-16T01:05:52;100448.41;;;11.42;90.25
43125;BME280;49182;50.788;7.318;2024-02-16T01:10:55;100448.97;;;11.46;89.50
43125;BME280;49182;50.788;7.318;2024-02-16T01:15:57;100442.97;;;11.53;89.50
43125;BME280;49182;50.788;7.318;2024-02-16T01:20:59;100442.00;;;11.45;90.50
43125;BME280;49182;50.788;7.318;2024-02-16T01:26:02;100445.75;;;11.52;89.52
43125;BME280;49182;50.788;7.318;2024-02-16T01:31:04;100435.75;;;11.73;86.96
43125;BME280;49182;50.788;7.318;2024-02-16T01:36:06;100439.81;;;11.67;89.33
43125;BME280;49182;50.788;7.318;2024-02-16T01:41:09;100447.50;;;11.61;91.10
43125;BME280;49182;50.788;7.318;2024-02-16T01:46:12;100430.31;;;11.47;91.71
43125;BME280;49182;50.788;7.318;2024-02-16T01:51:14;100418.34;;;11.43;90.32
43125;BME280;49182;50.788;7.318;2024-02-16T01:56:17;100431.69;;;11.51;92.21
43125;BME280;49182;50.788;7.318;2024-02-16T02:01:19;100431.97;;;11.48;92.99
43125;BME280;49182;50.788;7.318;2024-02-16T02:06:21;100420.66;;;11.56;92.36
43125;BME280;49182;50.788;7.318;2024-02-16T02:11:25;100422.38;;;11.47;93.70
43125;BME280;49182;50.788;7.318;2024-02-16T02:16:27;100414.72;;;11.44;94.48
43125;BME280;49182;50.788;7.318;2024-02-16T02:21:29;100389.91;;;11.27;94.69
43125;BME280;49182;50.788;7.318;2024-02-16T02:26:33;100424.59;;;11.42;94.86
43125;BME280;49182;50.788;7.318;2024-02-16T02:31:35;100392.22;;;11.40;95.92
43125;BME280;49182;50.788;7.318;2024-02-16T02:36:36;100388.59;;;11.41;96.93
43125;BME280;49182;50.788;7.318;2024-02-16T02:41:40;100371.06;;;11.67;92.58
43125;BME280;49182;50.788;7.318;2024-02-16T02:46:42;100384.56;;;11.74;93.30
43125;BME280;49182;50.788;7.318;2024-02-16T02:51:43;100376.50;;;11.75;92.46
43125;BME280;49182;50.788;7.318;2024-02-16T02:56:46;100373.22;;;11.54;93.07
43125;BME280;49182;50.788;7.318;2024-02-16T03:01:48;100416.44;;;11.72;94.23
43125;BME280;49182;50.788;7.318;2024-02-16T03:06:51;100428.59;;;11.65;94.96
43125;BME280;49182;50.788;7.318;2024-02-16T03:11:54;100346.56;;;11.11;95.03
43125;BME280;49182;50.788;7.318;2024-02-16T03:16:56;100445.97;;;11.78;94.81
43125;BME280;49182;50.788;7.318;2024-02-16T03:21:58;100437.63;;;11.63;95.90
43125;BME280;49182;50.788;7.318;2024-02-16T03:27:01;100423.56;;;11.62;98.88
43125;BME280;49182;50.788;7.318;2024-02-16T03:32:03;100405.25;;;11.51;100.00
43125;BME280;49182;50.788;7.318;2024-02-16T03:37:05;100387.97;;;11.57;100.00
43125;BME280;49182;50.788;7.318;2024-02-16T03:42:08;100411.50;;;11.50;100.00
43125;BME280;49182;50.788;7.318;2024-02-16T03:47:10;100414.19;;;11.41;100.00
43125;BME280;49182;50.788;7.318;2024-02-16T03:52:11;100396.22;;;11.44;100.00
43125;BME280;49182;50.788;7.318;2024-02-16T03:57:14;100421.44;;;11.39;100.00
43125;BME280;49182;50.788;7.318;2024-02-16T04:02:16;100404.28;;;11.43;100.00
43125;BME280;49182;50.788;7.318;2024-02-16T04:07:18;100401.66;;;11.43;100.00
43125;BME280;49182;50.788;7.318;2024-02-16T04:12:21;100397.81;;;11.27;100.00
43125;BME280;49182;50.788;7.318;2024-02-16T04:17:23;100411.19;;;11.26;100.00
43125;BME280;49182;50.788;7.318;2024-02-16T04:22:24;100408.66;;;11.24;100.00
43125;BME280;49182;50.788;7.318;2024-02-16T04:27:27;100438.19;;;11.20;100.00
43125;BME280;49182;50.788;7.318;2024-02-16T04:32:30;100434.13;;;11.25;100.00
43125;BME280;49182;50.788;7.318;2024-02-16T04:37:31;100421.22;;;11.13;100.00
43125;BME280;49182;50.788;7.318;2024-02-16T04:42:34;100420.78;;;11.17;100.00
43125;BME280;49182;50.788;7.318;2024-02-16T04:47:36;100428.03;;;11.06;100.00
43125;BME280;49182;50.788;7.318;2024-02-16T04:52:38;100415.78;;;11.14;100.00
43125;BME280;49182;50.788;7.318;2024-02-16T04:57:41;100430.13;;;11.12;100.00
43125;BME280;49182;50.788;7.318;2024-02-16T05:02:43;100416.81;;;11.04;100.00
43125;BME280;49182;50.788;7.318;2024-02-16T05:07:48;100431.09;;;11.20;100.00
43125;BME280;49182;50.788;7.318;2024-02-16T05:12:51;100422.16;;;11.31;100.00
43125;BME280;49182;50.788;7.318;2024-02-16T05:17:53;100429.16;;;11.13;100.00
43125;BME280;49182;50.788;7.318;2024-02-16T05:22:55;100379.69;;;10.95;100.00
43125;BME280;49182;50.788;7.318;2024-02-16T05:27:58;100441.81;;;11.09;100.00
43125;BME280;49182;50.788;7.318;2024-02-16T05:33:01;100443.34;;;11.02;100.00
43125;BME280;49182;50.788;7.318;2024-02-16T05:38:03;100446.00;;;11.02;100.00
43125;BME280;49182;50.788;7.318;2024-02-16T05:43:06;100434.88;;;10.99;100.00
43125;BME280;49182;50.788;7.318;2024-02-16T05:48:07;100413.91;;;10.97;100.00
43125;BME280;49182;50.788;7.318;2024-02-16T05:53:09;100429.03;;;10.95;100.00
43125;BME280;49182;50.788;7.318;2024-02-16T05:58:12;100436.13;;;10.94;100.00
43125;BME280;49182;50.788;7.318;2024-02-16T06:03:14;100413.19;;;10.95;100.00
43125;BME280;49182;50.788;7.318;2024-02-16T06:08:16;100432.91;;;11.10;100.00
43125;BME280;49182;50.788;7.318;2024-02-16T06:13:19;100432.34;;;11.07;100.00
43125;BME280;49182;50.788;7.318;2024-02-16T06:18:21;100422.66;;;10.98;100.00
43125;BME280;49182;50.788;7.318;2024-02-16T06:23:23;100448.19;;;11.26;100.00
43125;BME280;49182;50.788;7.318;2024-02-16T06:28:26;100447.56;;;11.51;100.00
43125;BME280;49182;50.788;7.318;2024-02-16T06:33:28;100447.75;;;11.67;100.00
43125;BME280;49182;50.788;7.318;2024-02-16T06:38:30;100447.91;;;11.75;100.00
43125;BME280;49182;50.788;7.318;2024-02-16T06:43:33;100448.16;;;11.82;100.00
43125;BME280;49182;50.788;7.318;2024-02-16T06:48:35;100463.31;;;11.90;99.43
43125;BME280;49182;50.788;7.318;2024-02-16T06:53:37;100466.72;;;12.00;96.73
43125;BME280;49182;50.788;7.318;2024-02-16T06:58:40;100466.31;;;12.22;94.13
43125;BME280;49182;50.788;7.318;2024-02-16T07:03:43;100471.44;;;12.33;92.44
43125;BME280;49182;50.788;7.318;2024-02-16T07:08:45;100473.09;;;12.34;94.50
43125;BME280;49182;50.788;7.318;2024-02-16T07:13:48;100468.25;;;12.47;90.34
43125;BME280;49182;50.788;7.318;2024-02-16T07:18:50;100458.50;;;12.66;86.42
43125;BME280;49182;50.788;7.318;2024-02-16T07:23:52;100386.63;;;12.25;86.82
43125;BME280;49182;50.788;7.318;2024-02-16T07:28:55;100455.31;;;12.62;86.11
43125;BME280;49182;50.788;7.318;2024-02-16T07:33:57;100479.53;;;12.85;85.48
43125;BME280;49182;50.788;7.318;2024-02-16T07:38:59;100498.63;;;12.88;85.14
43125;BME280;49182;50.788;7.318;2024-02-16T07:44:02;100503.38;;;12.85;86.47
43125;BME280;49182;50.788;7.318;2024-02-16T07:49:04;100503.69;;;13.00;84.42
43125;BME280;49182;50.788;7.318;2024-02-16T07:54:06;100519.13;;;13.04;83.42
43125;BME280;49182;50.788;7.318;2024-02-16T07:59:09;100540.56;;;13.11;83.15
43125;BME280;49182;50.788;7.318;2024-02-16T08:04:11;100555.25;;;13.05;85.83
43125;BME280;49182;50.788;7.318;2024-02-16T08:09:12;100534.88;;;13.06;85.89
43125;BME280;49182;50.788;7.318;2024-02-16T08:14:16;100555.94;;;13.07;88.11
43125;BME280;49182;50.788;7.318;2024-02-16T08:19:17;100558.06;;;13.21;85.38
43125;BME280;49182;50.788;7.318;2024-02-16T08:24:19;100554.41;;;13.14;87.41
43125;BME280;49182;50.788;7.318;2024-02-16T08:29:22;100575.66;;;13.22;86.83
43125;BME280;49182;50.788;7.318;2024-02-16T08:34:24;100572.03;;;13.23;87.67
43125;BME280;49182;50.788;7.318;2024-02-16T08:39:25;100569.53;;;13.22;88.69
43125;BME280;49182;50.788;7.318;2024-02-16T08:44:29;100585.88;;;13.35;87.58
43125;BME280;49182;50.788;7.318;2024-02-16T08:49:30;100596.25;;;13.46;90.36
43125;BME280;49182;50.788;7.318;2024-02-16T08:54:32;100588.22;;;13.56;87.94
43125;BME280;49182;50.788;7.318;2024-02-16T08:59:35;100602.81;;;13.60;87.50
43125;BME280;49182;50.788;7.318;2024-02-16T09:04:37;100605.84;;;13.65;88.08
43125;BME280;49182;50.788;7.318;2024-02-16T09:09:39;100603.38;;;13.63;87.60
43125;BME280;49182;50.788;7.318;2024-02-16T09:14:43;100617.16;;;13.67;87.22
43125;BME280;49182;50.788;7.318;2024-02-16T09:19:44;100626.09;;;13.66;91.03
43125;BME280;49182;50.788;7.318;2024-02-16T09:24:46;100621.38;;;13.77;91.10
43125;BME280;49182;50.788;7.318;2024-02-16T09:29:49;100616.38;;;13.74;92.80
43125;BME280;49182;50.788;7.318;2024-02-16T09:34:51;100622.56;;;13.83;91.93
43125;BME280;49182;50.788;7.318;2024-02-16T09:39:53;100629.25;;;13.87;91.92
43125;BME280;49182;50.788;7.318;2024-02-16T09:44:56;100624.59;;;13.89;91.97
43125;BME280;49182;50.788;7.318;2024-02-16T09:49:58;100641.13;;;14.01;93.52
43125;BME280;49182;50.788;7.318;2024-02-16T09:55:00;100640.94;;;14.02;92.43
43125;BME280;49182;50.788;7.318;2024-02-16T10:00:04;100646.44;;;14.01;87.58
43125;BME280;49182;50.788;7.318;2024-02-16T10:05:14;100658.19;;;13.98;90.45
43125;BME280;49182;50.788;7.318;2024-02-16T10:10:20;100664.75;;;14.12;88.41
43125;BME280;49182;50.788;7.318;2024-02-16T10:15:23;100667.56;;;14.10;88.80
43125;BME280;49182;50.788;7.318;2024-02-16T10:20:25;100677.13;;;14.03;88.45
43125;BME280;49182;50.788;7.318;2024-02-16T10:25:27;100675.69;;;14.09;88.37
43125;BME280;49182;50.788;7.318;2024-02-16T10:30:35;100696.16;;;14.16;88.19
43125;BME280;49182;50.788;7.318;2024-02-16T10:35:37;100701.19;;;14.02;87.47
43125;BME280;49182;50.788;7.318;2024-02-16T10:40:40;100624.66;;;13.54;90.80
43125;BME280;49182;50.788;7.318;2024-02-16T10:45:43;100717.28;;;14.00;92.89
43125;BME280;49182;50.788;7.318;2024-02-16T10:50:45;100727.72;;;14.02;94.95
43125;BME280;49182;50.788;7.318;2024-02-16T10:55:47;100729.94;;;14.06;97.15
43125;BME280;49182;50.788;7.318;2024-02-16T11:00:51;100731.16;;;14.12;97.32
43125;BME280;49182;50.788;7.318;2024-02-16T11:05:54;100722.94;;;14.23;97.60
43125;BME280;49182;50.788;7.318;2024-02-16T11:10:57;100723.44;;;14.27;97.17
43125;BME280;49182;50.788;7.318;2024-02-16T11:16:01;100728.38;;;14.22;95.29
43125;BME280;49182;50.788;7.318;2024-02-16T11:21:04;100710.69;;;14.30;94.31
43125;BME280;49182;50.788;7.318;2024-02-16T11:26:09;100713.50;;;14.29;93.88
43125;BME280;49182;50.788;7.318;2024-02-16T11:31:12;100710.84;;;14.29;94.39
43125;BME280;49182;50.788;7.318;2024-02-16T11:36:16;100686.16;;;14.10;96.48
43125;BME280;49182;50.788;7.318;2024-02-16T11:41:18;100702.53;;;14.24;96.83
43125;BME280;49182;50.788;7.318;2024-02-16T11:46:21;100713.66;;;14.27;98.07
43125;BME280;49182;50.788;7.318;2024-02-16T11:51:23;100712.81;;;14.27;98.94
43125;BME280;49182;50.788;7.318;2024-02-16T11:56:25;100722.47;;;14.28;98.88
43125;BME280;49182;50.788;7.318;2024-02-16T12:01:29;100713.56;;;14.37;99.41
43125;BME280;49182;50.788;7.318;2024-02-16T12:06:30;100721.16;;;14.49;98.70
43125;BME280;49182;50.788;7.318;2024-02-16T12:11:33;100719.25;;;14.68;100.00
43125;BME280;49182;50.788;7.318;2024-02-16T12:16:36;100727.78;;;14.79;97.07
43125;BME280;49182;50.788;7.318;2024-02-16T12:21:38;100701.31;;;14.70;94.40
43125;BME280;49182;50.788;7.318;2024-02-16T12:26:40;100727.19;;;14.60;94.13
43125;BME280;49182;50.788;7.318;2024-02-16T12:31:44;100710.31;;;14.43;93.09
43125;BME280;49182;50.788;7.318;2024-02-16T12:36:46;100742.75;;;14.54;93.67
43125;BME280;49182;50.788;7.318;2024-02-16T12:41:51;100751.09;;;14.60;94.27
43125;BME280;49182;50.788;7.318;2024-02-16T12:46:54;100749.06;;;14.53;92.87
43125;BME280;49182;50.788;7.318;2024-02-16T12:51:56;100759.84;;;14.52;93.23
43125;BME280;49182;50.788;7.318;2024-02-16T12:56:58;100757.16;;;14.44;92.83
43125;BME280;49182;50.788;7.318;2024-02-16T13:02:01;100761.78;;;14.42;92.55
43125;BME280;49182;50.788;7.318;2024-02-16T13:07:03;100773.72;;;14.38;92.05
43125;BME280;49182;50.788;7.318;2024-02-16T13:12:05;100777.94;;;14.31;93.08
43125;BME280;49182;50.788;7.318;2024-02-16T13:17:08;100777.34;;;14.19;95.09
43125;BME280;49182;50.788;7.318;2024-02-16T13:22:10;100771.03;;;14.20;95.31
43125;BME280;49182;50.788;7.318;2024-02-16T13:27:12;100779.53;;;14.24;96.53
43125;BME280;49182;50.788;7.318;2024-02-16T13:32:15;100786.81;;;14.22;98.20
43125;BME280;49182;50.788;7.318;2024-02-16T13:37:18;100794.09;;;14.19;98.68
43125;BME280;49182;50.788;7.318;2024-02-16T13:42:19;100806.84;;;14.16;100.00
43125;BME280;49182;50.788;7.318;2024-02-16T13:47:23;100806.94;;;14.06;100.00
43125;BME280;49182;50.788;7.318;2024-02-16T13:52:25;100807.56;;;14.00;100.00
43125;BME280;49182;50.788;7.318;2024-02-16T13:57:28;100750.56;;;13.59;100.00
43125;BME280;49182;50.788;7.318;2024-02-16T14:02:31;100797.81;;;13.73;100.00
43125;BME280;49182;50.788;7.318;2024-02-16T14:07:32;100818.22;;;13.73;100.00
43125;BME280;49182;50.788;7.318;2024-02-16T14:12:44;100819.94;;;13.64;100.00
43125;BME280;49182;50.788;7.318;2024-02-16T14:17:47;100822.19;;;13.59;100.00
43125;BME280;49182;50.788;7.318;2024-02-16T14:22:49;100820.97;;;13.54;100.00
43125;BME280;49182;50.788;7.318;2024-02-16T14:27:51;100834.13;;;13.46;100.00
43125;BME280;49182;50.788;7.318;2024-02-16T14:32:54;100839.44;;;13.46;100.00
43125;BME280;49182;50.788;7.318;2024-02-16T14:37:56;100832.75;;;13.42;100.00
43125;BME280;49182;50.788;7.318;2024-02-16T14:42:58;100841.31;;;13.35;100.00
43125;BME280;49182;50.788;7.318;2024-02-16T14:48:01;100840.78;;;13.32;100.00
43125;BME280;49182;50.788;7.318;2024-02-16T14:53:03;100765.91;;;12.74;100.00
43125;BME280;49182;50.788;7.318;2024-02-16T14:58:05;100844.28;;;13.23;100.00
43125;BME280;49182;50.788;7.318;2024-02-16T15:03:08;100853.38;;;13.20;100.00
43125;BME280;49182;50.788;7.318;2024-02-16T15:08:09;100844.44;;;13.21;100.00
43125;BME280;49182;50.788;7.318;2024-02-16T15:13:11;100853.66;;;13.17;100.00
43125;BME280;49182;50.788;7.318;2024-02-16T15:18:14;100854.63;;;13.16;100.00
43125;BME280;49182;50.788;7.318;2024-02-16T15:23:16;100863.75;;;13.14;100.00
43125;BME280;49182;50.788;7.318;2024-02-16T15:28:18;100858.69;;;13.11;100.00
43125;BME280;49182;50.788;7.318;2024-02-16T15:33:21;100871.09;;;13.10;100.00
43125;BME280;49182;50.788;7.318;2024-02-16T15:38:23;100879.50;;;13.06;100.00
43125;BME280;49182;50.788;7.318;2024-02-16T15:43:25;100880.31;;;13.06;100.00
43125;BME280;49182;50.788;7.318;2024-02-16T15:48:28;100889.97;;;13.07;100.00
43125;BME280;49182;50.788;7.318;2024-02-16T15:53:30;100896.09;;;13.08;100.00
43125;BME280;49182;50.788;7.318;2024-02-16T15:58:32;100903.47;;;13.04;100.00
43125;BME280;49182;50.788;7.318;2024-02-16T16:03:35;100908.13;;;13.02;100.00
43125;BME280;49182;50.788;7.318;2024-02-16T16:08:36;100907.53;;;12.98;100.00
43125;BME280;49182;50.788;7.318;2024-02-16T16:13:39;100911.31;;;12.86;100.00
43125;BME280;49182;50.788;7.318;2024-02-16T16:18:42;100908.13;;;12.83;100.00
43125;BME280;49182;50.788;7.318;2024-02-16T16:23:44;100943.13;;;12.86;100.00
43125;BME280;49182;50.788;7.318;2024-02-16T16:28:45;100943.56;;;12.82;100.00
43125;BME280;49182;50.788;7.318;2024-02-16T16:33:48;100951.38;;;12.83;100.00
43125;BME280;49182;50.788;7.318;2024-02-16T16:38:50;100959.59;;;12.80;100.00
43125;BME280;49182;50.788;7.318;2024-02-16T16:43:52;100954.84;;;12.74;100.00
43125;BME280;49182;50.788;7.318;2024-02-16T16:48:55;100979.94;;;12.80;100.00
43125;BME280;49182;50.788;7.318;2024-02-16T16:53:57;100978.00;;;12.72;100.00
43125;BME280;49182;50.788;7.318;2024-02-16T16:58:59;100973.13;;;12.87;100.00
43125;BME280;49182;50.788;7.318;2024-02-16T17:04:02;100997.25;;;12.84;100.00
43125;BME280;49182;50.788;7.318;2024-02-16T17:09:04;101011.19;;;12.76;100.00
43125;BME280;49182;50.788;7.318;2024-02-16T17:14:06;101023.91;;;12.82;100.00
43125;BME280;49182;50.788;7.318;2024-02-16T17:19:09;101027.94;;;12.86;100.00
43125;BME280;49182;50.788;7.318;2024-02-16T17:24:11;101041.91;;;12.88;100.00
43125;BME280;49182;50.788;7.318;2024-02-16T17:29:13;101047.03;;;12.90;100.00
43125;BME280;49182;50.788;7.318;2024-02-16T17:34:16;101056.53;;;12.92;100.00
43125;BME280;49182;50.788;7.318;2024-02-16T17:39:18;101073.00;;;12.96;100.00
43125;BME280;49182;50.788;7.318;2024-02-16T17:44:20;101074.81;;;12.95;100.00
43125;BME280;49182;50.788;7.318;2024-02-16T17:49:23;101079.53;;;12.92;100.00
43125;BME280;49182;50.788;7.318;2024-02-16T17:54:29;101104.66;;;12.88;100.00
43125;BME280;49182;50.788;7.318;2024-02-16T17:59:30;101111.47;;;12.90;100.00
43125;BME280;49182;50.788;7.318;2024-02-16T18:04:33;101121.41;;;12.88;100.00
43125;BME280;49182;50.788;7.318;2024-02-16T18:09:35;101129.75;;;12.84;100.00
43125;BME280;49182;50.788;7.318;2024-02-16T18:14:37;101144.91;;;12.72;100.00
43125;BME280;49182;50.788;7.318;2024-02-16T18:19:40;101157.91;;;12.75;100.00
43125;BME280;49182;50.788;7.318;2024-02-16T18:24:44;101161.94;;;12.70;100.00
43125;BME280;49182;50.788;7.318;2024-02-16T18:29:45;101181.31;;;12.70;100.00
43125;BME280;49182;50.788;7.318;2024-02-16T18:34:48;101165.47;;;12.49;100.00
43125;BME280;49182;50.788;7.318;2024-02-16T18:39:50;101195.47;;;12.60;100.00
43125;BME280;49182;50.788;7.318;2024-02-16T18:44:52;101203.72;;;12.56;100.00
43125;BME280;49182;50.788;7.318;2024-02-16T18:49:55;101195.41;;;12.40;100.00
43125;BME280;49182;50.788;7.318;2024-02-16T18:54:57;101217.88;;;12.46;100.00
43125;BME280;49182;50.788;7.318;2024-02-16T19:00:00;101232.53;;;12.50;100.00
43125;BME280;49182;50.788;7.318;2024-02-16T19:05:04;101236.78;;;12.41;100.00
43125;BME280;49182;50.788;7.318;2024-02-16T19:10:06;101254.66;;;12.39;100.00
43125;BME280;49182;50.788;7.318;2024-02-16T19:15:09;101258.69;;;12.43;100.00
43125;BME280;49182;50.788;7.318;2024-02-16T19:20:12;101265.16;;;12.30;100.00
43125;BME280;49182;50.788;7.318;2024-02-16T19:25:14;101279.25;;;12.30;100.00
43125;BME280;49182;50.788;7.318;2024-02-16T19:30:16;101280.09;;;12.31;100.00
43125;BME280;49182;50.788;7.318;2024-02-16T19:35:19;101289.59;;;12.33;100.00
43125;BME280;49182;50.788;7.318;2024-02-16T19:40:21;101300.81;;;12.26;100.00
43125;BME280;49182;50.788;7.318;2024-02-16T19:45:23;101304.22;;;12.16;100.00
43125;BME280;49182;50.788;7.318;2024-02-16T19:50:31;101323.75;;;12.15;100.00
43125;BME280;49182;50.788;7.318;2024-02-16T19:55:33;101338.19;;;12.11;100.00
43125;BME280;49182;50.788;7.318;2024-02-16T20:00:34;101306.28;;;11.81;100.00
43125;BME280;49182;50.788;7.318;2024-02-16T20:05:38;101356.19;;;11.97;100.00
43125;BME280;49182;50.788;7.318;2024-02-16T20:10:40;101363.16;;;11.87;100.00
43125;BME280;49182;50.788;7.318;2024-02-16T20:15:42;101370.38;;;11.96;100.00
43125;BME280;49182;50.788;7.318;2024-02-16T20:20:45;101377.56;;;11.94;100.00
43125;BME280;49182;50.788;7.318;2024-02-16T20:25:47;101388.91;;;11.96;100.00
43125;BME280;49182;50.788;7.318;2024-02-16T20:30:48;101409.44;;;11.92;100.00
43125;BME280;49182;50.788;7.318;2024-02-16T20:35:52;101406.69;;;11.94;100.00
43125;BME280;49182;50.788;7.318;2024-02-16T20:40:54;101424.28;;;11.84;100.00
43125;BME280;49182;50.788;7.318;2024-02-16T20:45:55;101428.34;;;11.88;100.00
43125;BME280;49182;50.788;7.318;2024-02-16T20:50:58;101436.19;;;11.78;100.00
43125;BME280;49182;50.788;7.318;2024-02-16T20:56:00;101440.66;;;11.78;100.00
43125;BME280;49182;50.788;7.318;2024-02-16T21:01:02;101450.38;;;11.77;100.00
43125;BME280;49182;50.788;7.318;2024-02-16T21:06:06;101464.69;;;11.74;100.00
43125;BME280;49182;50.788;7.318;2024-02-16T21:11:08;101465.41;;;11.77;100.00
43125;BME280;49182;50.788;7.318;2024-02-16T21:16:10;101470.41;;;11.68;100.00
43125;BME280;49182;50.788;7.318;2024-02-16T21:21:13;101478.34;;;11.68;100.00
43125;BME280;49182;50.788;7.318;2024-02-16T21:26:14;101485.09;;;11.61;100.00
43125;BME280;49182;50.788;7.318;2024-02-16T21:31:16;101481.75;;;11.59;100.00
43125;BME280;49182;50.788;7.318;2024-02-16T21:36:19;101497.84;;;11.56;100.00
43125;BME280;49182;50.788;7.318;2024-02-16T21:41:21;101499.53;;;11.57;100.00
43125;BME280;49182;50.788;7.318;2024-02-16T21:46:27;101508.03;;;11.50;100.00
43125;BME280;49182;50.788;7.318;2024-02-16T21:51:30;101503.22;;;11.44;100.00
43125;BME280;49182;50.788;7.318;2024-02-16T21:56:35;101506.59;;;11.34;100.00
43125;BME280;49182;50.788;7.318;2024-02-16T22:01:37;101515.22;;;11.25;100.00
43125;BME280;49182;50.788;7.318;2024-02-16T22:06:40;101517.47;;;11.19;100.00
43125;BME280;49182;50.788;7.318;2024-02-16T22:11:42;101524.41;;;11.09;100.00
43125;BME280;49182;50.788;7.318;2024-02-16T22:16:44;101524.50;;;10.96;100.00
43125;BME280;49182;50.788;7.318;2024-02-16T22:21:47;101539.22;;;10.87;100.00
43125;BME280;49182;50.788;7.318;2024-02-16T22:26:49;101553.78;;;10.93;100.00
43125;BME280;49182;50.788;7.318;2024-02-16T22:31:50;101539.13;;;10.89;100.00
43125;BME280;49182;50.788;7.318;2024-02-16T22:37:09;101548.19;;;10.74;100.00
43125;BME280;49182;50.788;7.318;2024-02-16T22:42:11;101551.03;;;10.71;100.00
43125;BME280;49182;50.788;7.318;2024-02-16T22:47:13;101561.69;;;10.69;100.00
43125;BME280;49182;50.788;7.318;2024-02-16T22:52:16;101571.88;;;10.63;100.00
43125;BME280;49182;50.788;7.318;2024-02-16T22:57:17;101586.25;;;10.59;100.00
43125;BME280;49182;50.788;7.318;2024-02-16T23:02:19;101560.50;;;10.49;100.00
43125;BME280;49182;50.788;7.318;2024-02-16T23:07:23;101592.69;;;10.67;100.00
43125;BME280;49182;50.788;7.318;2024-02-16T23:12:25;101603.00;;;10.70;100.00
43125;BME280;49182;50.788;7.318;2024-02-16T23:17:27;101600.72;;;10.66;100.00
43125;BME280;49182;50.788;7.318;2024-02-16T23:22:30;101613.06;;;10.65;100.00
43125;BME280;49182;50.788;7.318;2024-02-16T23:27:32;101610.63;;;10.62;100.00
43125;BME280;49182;50.788;7.318;2024-02-16T23:32:34;101621.94;;;10.64;100.00
43125;BME280;49182;50.788;7.318;2024-02-16T23:37:37;101627.31;;;10.63;100.00
43125;BME280;49182;50.788;7.318;2024-02-16T23:42:38;101633.69;;;10.60;100.00
43125;BME280;49182;50.788;7.318;2024-02-16T23:47:41;101572.28;;;10.20;100.00
43125;BME280;49182;50.788;7.318;2024-02-16T23:52:44;101653.63;;;10.64;100.00
43125;BME280;49182;50.788;7.318;2024-02-16T23:57:46;101660.09;;;10.60;100.00
